Time;durP1;ratioP1;P1;durP2;ratioP2;P2;SDS_P1;SDS_P2;PMS_P1;PMS_P2;Temp;Humidity;BMP_temperature;BMP_pressure;BME280_temperature;BME280_humidity;BME280_pressure;Samples;Min_cycle;Max_cycle;Signal;HPM_P1;HPM_P2
2021/06/01 00:01:33;;;;;;;1.50;1.20;;;18.00;56.20;;;;;;5107793;28;20020;-39
2021/06/01 00:03:59;;;;;;;1.48;1.30;;;18.00;56.30;;;;;;5108161;28;20088;-37
2021/06/01 00:06:25;;;;;;;1.35;1.10;;;17.90;56.30;;;;;;5107871;28;20020;-39
2021/06/01 00:08:50;;;;;;;1.52;1.25;;;17.90;56.30;;;;;;5107441;28;20099;-39
2021/06/01 00:11:16;;;;;;;1.73;1.50;;;17.90;56.30;;;;;;5108014;28;20061;-40
2021/06/01 00:13:42;;;;;;;1.52;1.15;;;17.80;56.30;;;;;;5107612;28;20184;-40
2021/06/01 00:16:10;;;;;;;2.88;2.35;;;17.80;56.40;;;;;;5107468;28;20411;-39
2021/06/01 00:18:36;;;;;;;3.28;1.30;;;17.80;56.40;;;;;;5107854;28;20031;-38
2021/06/01 00:21:02;;;;;;;1.80;1.30;;;17.80;56.50;;;;;;5107335;28;20030;-40
2021/06/01 00:23:28;;;;;;;2.85;1.23;;;17.70;56.50;;;;;;5107849;28;20027;-40
2021/06/01 00:25:54;;;;;;;2.90;1.30;;;17.70;56.50;;;;;;5107513;28;20016;-39
2021/06/01 00:28:20;;;;;;;1.70;1.42;;;17.70;56.60;;;;;;5107947;28;20735;-39
2021/06/01 00:30:45;;;;;;;1.83;1.20;;;17.70;56.50;;;;;;5106558;28;20031;-39
2021/06/01 00:33:11;;;;;;;1.42;1.33;;;17.70;56.60;;;;;;5107809;28;20104;-39
2021/06/01 00:35:38;;;;;;;3.40;1.15;;;17.70;56.50;;;;;;5107728;28;20019;-39
2021/06/01 00:38:04;;;;;;;4.03;1.40;;;17.60;56.60;;;;;;5106779;28;20548;-39
2021/06/01 00:40:30;;;;;;;1.63;1.27;;;17.60;56.50;;;;;;5107585;28;20046;-40
2021/06/01 00:42:56;;;;;;;2.53;1.23;;;17.60;56.50;;;;;;5107690;28;20024;-40
2021/06/01 00:45:25;;;;;;;1.70;1.30;;;17.60;56.60;;;;;;5107023;28;20452;-40
2021/06/01 00:47:51;;;;;;;2.50;1.23;;;17.60;56.60;;;;;;5106905;28;20028;-39
2021/06/01 00:50:20;;;;;;;1.48;1.20;;;17.50;56.70;;;;;;5107229;28;20032;-39
2021/06/01 00:52:46;;;;;;;2.22;1.30;;;17.50;56.80;;;;;;5107107;28;20102;-40
2021/06/01 00:55:12;;;;;;;1.95;1.10;;;17.50;56.90;;;;;;5107794;28;20494;-39
2021/06/01 00:57:37;;;;;;;1.73;1.35;;;17.50;57.00;;;;;;5106387;28;20074;-39
2021/06/01 01:00:12;;;;;;;2.75;1.40;;;17.50;57.10;;;;;;5107773;28;20027;-40
2021/06/01 01:02:38;;;;;;;2.30;1.20;;;17.40;57.20;;;;;;5107017;28;20020;-40
2021/06/01 01:05:14;;;;;;;2.22;1.20;;;17.40;57.30;;;;;;5106417;28;20028;-39
2021/06/01 01:07:46;;;;;;;3.35;1.50;;;17.40;57.40;;;;;;5106955;28;20032;-38
2021/06/01 01:10:20;;;;;;;1.70;1.23;;;17.40;57.60;;;;;;5107068;28;20055;-39
2021/06/01 01:12:58;;;;;;;1.80;1.17;;;17.30;57.60;;;;;;5106216;28;20123;-40
2021/06/01 01:15:28;;;;;;;3.80;1.33;;;17.30;57.80;;;;;;5107342;28;20024;-39
2021/06/01 01:18:01;;;;;;;2.55;1.58;;;17.20;57.90;;;;;;5107158;28;20119;-40
2021/06/01 01:21:09;;;;;;;2.53;1.30;;;17.20;58.00;;;;;;5105929;28;20058;-40
2021/06/01 01:23:39;;;;;;;1.00;1.00;;;17.20;58.20;;;;;;5106462;28;20034;-40
2021/06/01 01:26:23;;;;;;;3.15;1.60;;;17.10;58.20;;;;;;5106803;28;20039;-39
2021/06/01 01:29:07;;;;;;;1.80;1.52;;;17.10;58.40;;;;;;5106874;28;20051;-40
2021/06/01 01:31:46;;;;;;;1.73;1.27;;;17.00;58.50;;;;;;5086709;28;20373;-38
2021/06/01 01:34:13;;;;;;;1.45;1.05;;;17.00;58.70;;;;;;5104080;28;20043;-40
2021/06/01 01:36:41;;;;;;;1.90;1.30;;;17.00;58.80;;;;;;5107413;28;20020;-40
2021/06/01 01:39:09;;;;;;;1.67;1.48;;;16.90;58.90;;;;;;5107094;28;20043;-39
2021/06/01 01:41:36;;;;;;;1.83;1.50;;;16.90;59.10;;;;;;5107680;28;20052;-39
2021/06/01 01:44:06;;;;;;;1.75;1.27;;;16.80;59.30;;;;;;5110944;28;20360;-39
2021/06/01 01:48:58;;;;;;;1.75;1.50;;;16.80;59.40;;;;;;5110044;28;20015;-39
2021/06/01 01:49:22;;;;;;;4.35;1.50;;;16.70;59.50;;;;;;5102736;28;20036;-40
2021/06/01 01:51:56;;;;;;;2.28;1.30;;;16.70;59.70;;;;;;5110866;28;20047;-40
2021/06/01 01:54:23;;;;;;;3.88;1.92;;;16.70;59.80;;;;;;5110501;28;20051;-39
2021/06/01 01:56:57;;;;;;;1.60;1.30;;;16.70;60.00;;;;;;5109597;28;20352;-40
2021/06/01 01:59:27;;;;;;;2.25;1.20;;;16.60;60.10;;;;;;5111137;28;20036;-40
2021/06/01 02:01:53;;;;;;;1.80;1.45;;;16.60;60.30;;;;;;5109729;28;20015;-39
2021/06/01 02:04:23;;;;;;;2.10;1.50;;;16.60;60.50;;;;;;5110344;28;20387;-39
2021/06/01 02:06:48;;;;;;;2.65;1.65;;;16.50;60.70;;;;;;5110139;27;20035;-39
2021/06/01 02:09:14;;;;;;;3.25;1.63;;;16.50;60.80;;;;;;5109542;28;20095;-38
2021/06/01 02:11:39;;;;;;;2.33;1.55;;;16.40;61.00;;;;;;5109826;28;20331;-38
2021/06/01 02:14:06;;;;;;;2.08;1.83;;;16.40;61.20;;;;;;5110735;28;20015;-39
2021/06/01 02:16:34;;;;;;;2.78;2.15;;;16.40;61.40;;;;;;5098457;28;20035;-40
2021/06/01 02:19:00;;;;;;;3.13;1.95;;;16.30;61.50;;;;;;5109927;28;20554;-37
2021/06/01 02:21:35;;;;;;;2.00;1.80;;;16.30;61.80;;;;;;5109855;28;20019;-39
2021/06/01 02:24:10;;;;;;;2.33;1.63;;;16.20;62.00;;;;;;5109305;28;20062;-37
2021/06/01 02:27:02;;;;;;;2.80;1.70;;;16.20;62.10;;;;;;5110293;28;20051;-39
2021/06/01 02:29:46;;;;;;;2.05;1.65;;;16.10;62.40;;;;;;5109874;28;20103;-39
2021/06/01 02:32:11;;;;;;;2.42;1.90;;;16.10;62.50;;;;;;5100340;28;20150;-39
2021/06/01 02:34:43;;;;;;;2.55;1.60;;;16.10;62.70;;;;;;5109301;28;20079;-39
2021/06/01 02:37:09;;;;;;;3.92;1.55;;;16.00;62.80;;;;;;5108741;28;20043;-40
2021/06/01 02:39:36;;;;;;;2.78;1.60;;;16.00;63.10;;;;;;5109592;27;20105;-39
2021/06/01 02:42:03;;;;;;;3.00;1.60;;;15.90;63.80;;;;;;5109783;27;20020;-39
2021/06/01 02:44:33;;;;;;;2.00;1.63;;;15.90;63.30;;;;;;5109482;28;20421;-39
2021/06/01 02:46:59;;;;;;;2.33;1.70;;;15.90;63.50;;;;;;5107630;28;20360;-39
2021/06/01 02:49:26;;;;;;;2.67;2.03;;;15.90;63.60;;;;;;5109822;28;20463;-41
2021/06/01 02:51:54;;;;;;;1.70;1.52;;;15.90;63.80;;;;;;5108535;27;20034;-37
2021/06/01 02:54:21;;;;;;;3.47;2.38;;;15.80;63.80;;;;;;5109710;28;20089;-39
2021/06/01 02:56:51;;;;;;;3.80;2.05;;;15.80;64.00;;;;;;5108595;27;20459;-39
2021/06/01 02:59:17;;;;;;;1.60;1.50;;;15.80;64.20;;;;;;5109339;28;20057;-36
2021/06/01 03:01:43;;;;;;;2.97;2.13;;;15.80;64.20;;;;;;5109480;28;20335;-39
2021/06/01 03:04:08;;;;;;;3.28;2.38;;;15.80;64.50;;;;;;5109991;28;20110;-39
2021/06/01 03:06:34;;;;;;;2.35;2.00;;;15.70;64.60;;;;;;5109975;28;20023;-38
2021/06/01 03:09:00;;;;;;;2.65;1.95;;;15.70;64.60;;;;;;5109202;28;20531;-39
2021/06/01 03:11:26;;;;;;;2.88;1.90;;;15.70;64.90;;;;;;5108279;28;20028;-37
2021/06/01 03:13:52;;;;;;;1.63;1.50;;;15.70;64.90;;;;;;5108809;28;20022;-39
2021/06/01 03:16:19;;;;;;;2.50;1.85;;;15.60;65.00;;;;;;5108694;28;20022;-37
2021/06/01 03:18:45;;;;;;;3.05;1.58;;;15.60;65.20;;;;;;5108484;28;20471;-39
2021/06/01 03:21:13;;;;;;;3.63;2.00;;;15.60;65.40;;;;;;5108406;28;20019;-39
2021/06/01 03:23:39;;;;;;;3.55;2.15;;;15.60;65.60;;;;;;5108781;28;20055;-38
2021/06/01 03:26:05;;;;;;;3.33;1.90;;;15.50;65.70;;;;;;5108042;28;20082;-37
2021/06/01 03:28:31;;;;;;;3.60;1.92;;;15.50;65.70;;;;;;5108963;28;20059;-38
2021/06/01 03:30:57;;;;;;;3.35;2.10;;;15.50;65.80;;;;;;5108602;28;20031;-39
2021/06/01 03:33:22;;;;;;;2.10;1.90;;;15.50;65.90;;;;;;5108361;28;20032;-41
2021/06/01 03:35:51;;;;;;;2.08;1.80;;;15.50;66.10;;;;;;5108425;28;20064;-38
2021/06/01 03:38:16;;;;;;;2.15;1.92;;;15.40;66.10;;;;;;5107829;28;20027;-38
2021/06/01 03:40:48;;;;;;;2.28;1.90;;;15.40;66.30;;;;;;5108033;28;20076;-38
2021/06/01 03:43:14;;;;;;;2.40;2.20;;;15.40;66.30;;;;;;5108316;28;20423;-37
2021/06/01 03:45:39;;;;;;;2.10;1.80;;;15.40;66.30;;;;;;5108382;28;20023;-39
2021/06/01 03:48:08;;;;;;;3.55;2.10;;;15.40;66.40;;;;;;5107553;28;20024;-38
2021/06/01 03:50:37;;;;;;;3.15;1.92;;;15.40;66.60;;;;;;5108542;28;20359;-39
2021/06/01 03:53:04;;;;;;;2.47;1.90;;;15.40;66.70;;;;;;5107669;28;20275;-39
2021/06/01 03:55:29;;;;;;;2.10;1.90;;;15.30;66.70;;;;;;5108123;28;20034;-35
2021/06/01 03:57:55;;;;;;;1.83;1.73;;;15.30;66.90;;;;;;5107462;28;20035;-39
2021/06/01 04:00:23;;;;;;;3.20;2.15;;;15.30;67.00;;;;;;5108070;28;20122;-39
2021/06/01 04:02:48;;;;;;;2.42;1.70;;;15.30;67.10;;;;;;5108051;28;20040;-40
2021/06/01 04:05:14;;;;;;;2.03;1.70;;;15.30;67.20;;;;;;5107624;28;20840;-39
2021/06/01 04:07:40;;;;;;;2.20;2.03;;;15.30;67.30;;;;;;5107748;28;20019;-40
2021/06/01 04:10:10;;;;;;;2.17;1.75;;;15.20;67.40;;;;;;5107603;28;20044;-41
2021/06/01 04:12:35;;;;;;;3.10;1.92;;;15.30;67.50;;;;;;5108122;28;20035;-40
2021/06/01 04:15:01;;;;;;;4.43;1.60;;;15.30;67.70;;;;;;5106898;28;20023;-39
2021/06/01 04:17:26;;;;;;;2.38;1.55;;;15.30;67.80;;;;;;5108288;28;20032;-38
2021/06/01 04:19:52;;;;;;;2.15;1.90;;;15.30;68.00;;;;;;5107457;28;20019;-39
2021/06/01 04:22:17;;;;;;;2.53;1.65;;;15.30;68.10;;;;;;5107439;28;20019;-40
2021/06/01 04:24:43;;;;;;;3.25;1.65;;;15.30;68.30;;;;;;5107485;28;20019;-38
2021/06/01 04:27:09;;;;;;;3.08;2.10;;;15.20;68.20;;;;;;5107690;28;20451;-39
2021/06/01 04:29:34;;;;;;;2.05;1.85;;;15.30;68.40;;;;;;5107846;28;20029;-40
2021/06/01 04:32:00;;;;;;;4.40;2.00;;;15.30;68.40;;;;;;5107514;28;20040;-39
2021/06/01 04:34:25;;;;;;;2.20;2.00;;;15.30;68.60;;;;;;5107891;28;20546;-39
2021/06/01 04:36:51;;;;;;;2.30;1.77;;;15.20;68.80;;;;;;5107059;28;20028;-39
2021/06/01 04:39:16;;;;;;;6.13;2.25;;;15.30;69.50;;;;;;5107298;28;20034;-40
2021/06/01 04:41:42;;;;;;;2.85;2.40;;;15.30;69.00;;;;;;5107364;28;20471;-39
2021/06/01 04:44:07;;;;;;;2.30;1.77;;;15.30;69.00;;;;;;5106986;28;20105;-39
2021/06/01 04:46:34;;;;;;;3.17;1.90;;;15.30;69.20;;;;;;5107805;28;20085;-38
2021/06/01 04:48:59;;;;;;;2.60;2.00;;;15.30;69.20;;;;;;5106526;28;20534;-37
2021/06/01 04:51:25;;;;;;;3.95;2.13;;;15.30;69.30;;;;;;5107560;28;20027;-40
2021/06/01 04:53:53;;;;;;;2.45;1.77;;;15.30;69.40;;;;;;5107273;28;20046;-39
2021/06/01 04:56:19;;;;;;;2.30;1.70;;;15.40;69.50;;;;;;5106327;28;20373;-37
2021/06/01 04:58:48;;;;;;;2.42;1.83;;;15.40;70.30;;;;;;5106885;28;20127;-39
2021/06/01 05:01:14;;;;;;;1.98;1.70;;;15.40;69.80;;;;;;5106802;28;20350;-40
2021/06/01 05:03:40;;;;;;;3.50;2.20;;;15.40;69.80;;;;;;5107074;28;20488;-39
2021/06/01 05:06:08;;;;;;;3.85;2.20;;;15.40;70.00;;;;;;5107108;28;20015;-40
2021/06/01 05:08:36;;;;;;;4.00;2.10;;;15.40;70.10;;;;;;5107260;28;20031;-39
2021/06/01 05:11:03;;;;;;;3.65;2.20;;;15.40;70.10;;;;;;5106112;28;20442;-39
2021/06/01 05:13:28;;;;;;;4.45;2.10;;;15.50;70.30;;;;;;5107300;28;20030;-40
2021/06/01 05:15:57;;;;;;;2.65;1.90;;;15.50;70.40;;;;;;5108019;28;20016;-40
2021/06/01 05:18:23;;;;;;;4.15;2.25;;;15.60;70.60;;;;;;5110677;28;20035;-40
2021/06/01 05:20:51;;;;;;;5.07;2.15;;;15.60;70.50;;;;;;5110930;28;20110;-40
2021/06/01 05:23:26;;;;;;;2.67;2.03;;;15.60;70.60;;;;;;5111079;28;20026;-40
2021/06/01 05:25:54;;;;;;;2.88;2.30;;;15.70;70.70;;;;;;5110508;28;20110;-40
2021/06/01 05:28:20;;;;;;;6.05;2.15;;;15.70;70.70;;;;;;5111408;28;20622;-38
2021/06/01 05:30:57;;;;;;;4.18;2.15;;;15.70;70.70;;;;;;5110754;28;20031;-38
2021/06/01 05:33:26;;;;;;;3.22;2.50;;;15.70;70.70;;;;;;5110926;28;20042;-38
2021/06/01 05:35:53;;;;;;;3.50;2.22;;;15.80;70.90;;;;;;5110926;28;20034;-40
2021/06/01 05:38:21;;;;;;;3.28;2.33;;;15.80;70.90;;;;;;5111008;28;20036;-40
2021/06/01 05:40:47;;;;;;;2.85;2.00;;;15.80;71.00;;;;;;5109640;28;20016;-40
2021/06/01 05:43:12;;;;;;;3.80;2.20;;;15.90;71.10;;;;;;5110496;28;20042;-40
2021/06/01 05:45:38;;;;;;;3.58;2.28;;;15.90;71.20;;;;;;5128862;27;20108;-41
2021/06/01 05:48:08;;;;;;;4.93;2.20;;;16.00;71.20;;;;;;5107690;28;20458;-39
2021/06/01 05:50:35;;;;;;;2.83;2.20;;;16.00;71.30;;;;;;5108936;28;20450;-39
2021/06/01 05:53:01;;;;;;;2.63;2.05;;;16.00;71.60;;;;;;5109817;27;20027;-40
2021/06/01 05:55:27;;;;;;;3.30;1.98;;;16.10;71.40;;;;;;5110333;28;20088;-39
2021/06/01 05:57:53;;;;;;;3.22;2.10;;;16.10;72.10;;;;;;5108989;28;20050;-40
2021/06/01 06:00:22;;;;;;;2.95;2.17;;;16.10;71.50;;;;;;5109102;27;20475;-40
2021/06/01 06:02:49;;;;;;;3.22;2.38;;;16.20;71.50;;;;;;5108940;28;20103;-39
2021/06/01 06:05:15;;;;;;;2.63;2.10;;;16.20;71.50;;;;;;5109073;28;20023;-39
2021/06/01 06:07:44;;;;;;;3.40;2.25;;;16.30;71.60;;;;;;5108857;28;20036;-39
2021/06/01 06:10:10;;;;;;;5.00;2.25;;;16.30;71.60;;;;;;5108866;28;20051;-38
2021/06/01 06:12:36;;;;;;;3.35;2.13;;;16.40;71.70;;;;;;5108905;28;20032;-39
2021/06/01 06:15:09;;;;;;;2.50;2.20;;;16.40;71.70;;;;;;5108246;28;20031;-40
2021/06/01 06:17:34;;;;;;;5.13;2.13;;;16.40;71.70;;;;;;5110153;28;20433;-37
2021/06/01 06:20:05;;;;;;;2.83;2.10;;;16.50;72.40;;;;;;5109915;28;20032;-40
2021/06/01 06:22:31;;;;;;;4.20;2.60;;;16.50;71.80;;;;;;5109845;28;20085;-38
2021/06/01 06:24:57;;;;;;;3.47;2.35;;;16.60;71.90;;;;;;5109569;28;20020;-36
2021/06/01 06:27:22;;;;;;;3.95;2.38;;;16.60;71.90;;;;;;5108938;28;20686;-38
2021/06/01 06:29:48;;;;;;;3.33;2.50;;;16.60;71.90;;;;;;5109754;28;20102;-40
2021/06/01 06:32:14;;;;;;;5.15;3.40;;;16.70;72.10;;;;;;5109919;28;20033;-41
2021/06/01 06:34:39;;;;;;;3.20;2.58;;;16.70;72.10;;;;;;5110586;28;20047;-40
2021/06/01 06:37:05;;;;;;;4.97;2.53;;;16.70;72.10;;;;;;5109003;28;20423;-40
2021/06/01 06:39:35;;;;;;;2.53;2.33;;;16.80;72.30;;;;;;5109949;28;20024;-38
2021/06/01 06:42:00;;;;;;;4.15;2.67;;;16.80;72.30;;;;;;5109415;28;20081;-41
2021/06/01 06:44:26;;;;;;;3.42;2.40;;;16.90;72.30;;;;;;5109628;28;20027;-40
2021/06/01 06:47:03;;;;;;;2.55;2.08;;;16.90;72.50;;;;;;5109206;28;20103;-39
2021/06/01 06:49:29;;;;;;;3.25;2.40;;;17.00;72.30;;;;;;5108793;28;20351;-40
2021/06/01 06:51:55;;;;;;;2.85;2.65;;;17.00;72.30;;;;;;5109916;28;20470;-40
2021/06/01 06:54:20;;;;;;;4.55;2.85;;;17.00;72.40;;;;;;5109900;28;20019;-41
2021/06/01 06:56:46;;;;;;;5.15;2.42;;;17.10;72.50;;;;;;5109219;28;20040;-40
2021/06/01 06:59:11;;;;;;;4.68;2.85;;;17.10;72.50;;;;;;5109669;28;20124;-39
2021/06/01 07:01:37;;;;;;;3.70;2.75;;;17.20;72.50;;;;;;5108978;28;20020;-39
2021/06/01 07:04:03;;;;;;;3.10;2.80;;;17.20;72.60;;;;;;5108324;28;20031;-38
2021/06/01 07:06:28;;;;;;;2.78;2.50;;;17.30;72.60;;;;;;5109842;28;20698;-42
2021/06/01 07:08:54;;;;;;;4.78;2.90;;;17.30;72.60;;;;;;5108761;28;20521;-40
2021/06/01 07:11:20;;;;;;;3.30;2.33;;;17.40;72.70;;;;;;5108509;28;20019;-39
2021/06/01 07:13:54;;;;;;;3.25;2.40;;;17.40;72.80;;;;;;5108522;28;20123;-40
2021/06/01 07:16:20;;;;;;;4.18;2.50;;;17.40;72.80;;;;;;5109909;28;20016;-40
2021/06/01 07:18:49;;;;;;;4.10;2.83;;;17.50;72.90;;;;;;5108136;28;20028;-38
2021/06/01 07:21:14;;;;;;;5.72;2.78;;;17.50;73.00;;;;;;5109116;28;20088;-39
2021/06/01 07:23:41;;;;;;;2.55;2.13;;;17.60;73.10;;;;;;5109264;28;20462;-42
2021/06/01 07:26:07;;;;;;;3.33;2.67;;;17.60;73.10;;;;;;5107582;28;20028;-37
2021/06/01 07:28:33;;;;;;;4.63;2.53;;;17.60;73.20;;;;;;5109537;28;20039;-40
2021/06/01 07:31:04;;;;;;;2.95;2.65;;;17.60;73.20;;;;;;5108186;28;20483;-38
2021/06/01 07:33:30;;;;;;;3.20;2.55;;;17.70;73.40;;;;;;5106413;28;20058;-40
2021/06/01 07:35:56;;;;;;;4.05;3.08;;;17.80;73.40;;;;;;5108088;28;20019;-41
2021/06/01 07:38:22;;;;;;;4.22;3.00;;;17.80;73.60;;;;;;5109051;27;20027;-39
2021/06/01 07:40:47;;;;;;;5.38;3.17;;;17.80;73.60;;;;;;5107727;28;20069;-42
2021/06/01 07:43:13;;;;;;;3.25;2.63;;;17.90;73.80;;;;;;5108794;28;20698;-41
2021/06/01 07:45:38;;;;;;;4.75;2.72;;;18.00;73.80;;;;;;5108558;28;20423;-39
2021/06/01 07:48:07;;;;;;;3.20;2.65;;;18.00;73.70;;;;;;5108160;28;20031;-41
2021/06/01 07:50:33;;;;;;;3.38;2.72;;;18.00;73.80;;;;;;5105803;28;20023;-40
2021/06/01 07:52:58;;;;;;;3.60;2.90;;;18.10;73.90;;;;;;5107990;28;20032;-39
2021/06/01 07:55:24;;;;;;;4.88;3.15;;;18.10;73.90;;;;;;5108644;28;20015;-40
2021/06/01 07:57:50;;;;;;;2.75;2.45;;;18.20;74.00;;;;;;5108480;28;20043;-39
2021/06/01 08:00:16;;;;;;;3.13;2.58;;;18.20;74.10;;;;;;5108034;28;20404;-40
2021/06/01 08:02:42;;;;;;;4.40;2.80;;;18.20;74.20;;;;;;5107836;28;20027;-38
2021/06/01 08:05:09;;;;;;;5.93;2.80;;;18.30;74.30;;;;;;5108370;28;20031;-40
2021/06/01 08:07:35;;;;;;;4.05;2.63;;;18.30;74.40;;;;;;5107721;28;20434;-39
2021/06/01 08:10:04;;;;;;;6.22;2.60;;;18.40;74.40;;;;;;5107303;28;20044;-39
2021/06/01 08:12:30;;;;;;;3.00;2.67;;;18.50;74.50;;;;;;5107937;28;20115;-39
2021/06/01 08:14:57;;;;;;;4.75;2.63;;;18.50;74.60;;;;;;5105399;28;20123;-40
2021/06/01 08:17:23;;;;;;;3.30;2.50;;;18.50;74.70;;;;;;5108262;28;20039;-40
2021/06/01 08:19:48;;;;;;;3.90;2.75;;;18.60;74.70;;;;;;5107677;28;20066;-39
2021/06/01 08:24:42;;;;;;;3.15;2.55;;;18.70;74.80;;;;;;5105701;28;20051;-40
2021/06/01 08:27:08;;;;;;;6.50;3.13;;;18.70;74.80;;;;;;5108388;27;20070;-37
2021/06/01 08:29:34;;;;;;;3.00;2.70;;;18.70;74.80;;;;;;5105767;28;20110;-39
2021/06/01 08:32:00;;;;;;;3.08;2.55;;;18.80;75.00;;;;;;5105905;28;20051;-40
2021/06/01 08:34:26;;;;;;;10.15;2.28;;;18.90;75.00;;;;;;5106012;28;20027;-41
2021/06/01 08:36:52;;;;;;;5.38;3.22;;;18.90;74.90;;;;;;5105936;28;20030;-41
2021/06/01 08:39:24;;;;;;;3.92;2.58;;;19.00;74.90;;;;;;5106627;28;20389;-39
2021/06/01 08:41:49;;;;;;;4.30;3.13;;;19.00;75.00;;;;;;5105927;28;20096;-45
2021/06/01 08:44:16;;;;;;;3.05;2.75;;;19.10;75.10;;;;;;5107542;28;20027;-39
2021/06/01 08:46:42;;;;;;;4.32;2.80;;;19.20;75.20;;;;;;5107732;28;20107;-37
2021/06/01 08:49:13;;;;;;;4.18;2.83;;;19.30;75.40;;;;;;5107121;27;20123;-41
2021/06/01 08:51:39;;;;;;;5.57;2.92;;;19.30;75.40;;;;;;5107424;28;20442;-42
2021/06/01 08:54:05;;;;;;;3.13;2.55;;;19.40;75.20;;;;;;5107474;28;20035;-39
2021/06/01 08:56:30;;;;;;;3.17;2.60;;;19.40;75.00;;;;;;5107940;28;20141;-40
2021/06/01 08:58:56;;;;;;;2.70;2.28;;;19.50;74.90;;;;;;5107043;28;20075;-40
2021/06/01 09:01:22;;;;;;;5.60;2.70;;;19.60;75.00;;;;;;5107900;28;20563;-41
2021/06/01 09:03:55;;;;;;;3.33;2.75;;;19.60;74.90;;;;;;5106716;28;20055;-40
2021/06/01 09:22:33;;;;;;;3.50;2.60;;;20.10;73.20;;;;;;5107423;28;20027;-39
2021/06/01 09:25:04;;;;;;;3.60;2.37;;;20.20;73.00;;;;;;5106223;28;20142;-41
2021/06/01 09:27:31;;;;;;;3.33;2.47;;;20.20;72.80;;;;;;5107683;28;20069;-38
2021/06/01 09:29:57;;;;;;;2.78;2.08;;;20.30;72.70;;;;;;5106562;28;20450;-40
2021/06/01 09:32:26;;;;;;;2.83;2.55;;;20.30;72.50;;;;;;5107131;28;20020;-40
2021/06/01 09:34:56;;;;;;;2.60;2.40;;;20.30;72.30;;;;;;5106848;28;20032;-39
2021/06/01 09:37:23;;;;;;;4.35;2.78;;;20.40;72.00;;;;;;5107341;28;20063;-39
2021/06/01 09:40:08;;;;;;;2.78;2.10;;;20.40;71.60;;;;;;5106925;28;20019;-40
2021/06/01 09:42:37;;;;;;;3.13;2.22;;;20.50;71.80;;;;;;5107088;28;20046;-41
2021/06/01 09:45:10;;;;;;;3.13;2.40;;;20.50;71.70;;;;;;5106487;28;20028;-39
2021/06/01 09:47:57;;;;;;;2.47;2.20;;;20.50;71.40;;;;;;5107594;28;20428;-40
2021/06/01 09:50:32;;;;;;;2.40;1.92;;;20.60;71.20;;;;;;5107528;28;20088;-40
2021/06/01 09:53:03;;;;;;;3.78;2.80;;;20.60;71.10;;;;;;5108675;28;20090;-40
2021/06/01 09:57:58;;;;;;;4.72;2.22;;;20.70;70.40;;;;;;5106817;28;20391;-38
2021/06/01 10:00:26;;;;;;;3.47;1.85;;;20.80;70.10;;;;;;5106734;28;20027;-38
2021/06/01 10:03:03;;;;;;;3.60;1.90;;;20.80;69.90;;;;;;5107959;28;20099;-39
2021/06/01 10:05:36;;;;;;;2.10;1.73;;;20.90;69.60;;;;;;5110746;28;20360;-39
2021/06/01 10:08:23;;;;;;;2.55;2.00;;;20.90;69.30;;;;;;5110033;28;20026;-44
2021/06/01 10:11:03;;;;;;;2.53;1.85;;;21.00;68.50;;;;;;5110590;28;20031;-40
2021/06/01 10:13:31;;;;;;;2.20;1.80;;;21.00;68.10;;;;;;5110792;28;20331;-39
2021/06/01 10:16:00;;;;;;;1.95;1.67;;;21.00;67.80;;;;;;5110140;28;20076;-42
2021/06/01 10:18:29;;;;;;;2.83;1.67;;;21.00;67.50;;;;;;5111085;28;20372;-40
2021/06/01 10:20:55;;;;;;;1.98;1.40;;;21.10;67.40;;;;;;5109253;28;20019;-39
2021/06/01 10:23:26;;;;;;;4.70;1.50;;;21.10;66.90;;;;;;5110573;27;20027;-40
2021/06/01 10:25:52;;;;;;;2.93;1.60;;;21.10;66.70;;;;;;5110631;28;20027;-42
2021/06/01 10:28:25;;;;;;;4.10;1.90;;;21.20;66.70;;;;;;5110218;28;20265;-39
2021/06/01 10:30:53;;;;;;;1.90;1.60;;;21.20;66.40;;;;;;5110523;27;20026;-39
2021/06/01 10:33:19;;;;;;;2.50;1.67;;;21.30;66.00;;;;;;5110797;28;20022;-38
2021/06/01 10:36:00;;;;;;;2.90;1.63;;;21.30;65.50;;;;;;5109949;28;20028;-39
2021/06/01 10:53:12;;;;;;;2.50;1.85;;;21.60;63.10;;;;;;5107105;28;20075;-41
2021/06/01 10:55:54;;;;;;;3.58;2.45;;;21.70;63.10;;;;;;5110213;28;20039;-39
2021/06/01 10:58:33;;;;;;;1.80;1.70;;;21.80;62.30;;;;;;5110286;28;20028;-37
2021/06/01 11:04:18;;;;;;;3.78;2.13;;;22.00;62.00;;;;;;5107156;28;20126;-40
2021/06/01 11:06:52;;;;;;;1.85;1.70;;;21.90;61.60;;;;;;5108881;28;20455;-38
2021/06/01 11:09:44;;;;;;;2.20;2.00;;;21.90;61.10;;;;;;5108941;28;20047;-38
2021/06/01 11:12:13;;;;;;;2.00;1.80;;;21.90;61.00;;;;;;5109331;28;20066;-40
2021/06/01 11:14:39;;;;;;;2.53;1.70;;;22.00;61.90;;;;;;5109815;28;20065;-38
2021/06/01 11:17:05;;;;;;;1.73;1.60;;;22.00;61.10;;;;;;5108458;28;20072;-38
2021/06/01 11:20:24;;;;;;;1.85;1.75;;;22.00;60.90;;;;;;5108915;28;20031;-39
2021/06/01 11:33:33;;;;;;;2.65;1.83;;;22.20;61.20;;;;;;5109545;28;20070;-38
2021/06/01 11:36:09;;;;;;;2.05;1.73;;;22.20;60.30;;;;;;5109103;28;20548;-39
2021/06/01 11:38:55;;;;;;;2.78;1.83;;;22.30;59.90;;;;;;5108186;28;20035;-39
2021/06/01 11:44:23;;;;;;;2.85;1.70;;;22.40;58.70;;;;;;5108819;28;20506;-39
2021/06/01 11:51:59;;;;;;;2.55;1.77;;;22.40;59.00;;;;;;5108268;28;20516;-41
2021/06/01 11:54:25;;;;;;;1.52;1.20;;;22.50;58.70;;;;;;5108853;28;20443;-38
2021/06/01 11:57:09;;;;;;;1.65;1.42;;;22.50;58.80;;;;;;5108519;28;20027;-41
2021/06/01 12:18:48;;;;;;;2.38;1.85;;;22.90;55.50;;;;;;5107996;28;20062;-39
2021/06/01 12:21:24;;;;;;;1.50;1.40;;;23.00;55.60;;;;;;5107926;28;20012;-39
2021/06/01 12:24:13;;;;;;;1.63;1.52;;;23.10;55.40;;;;;;5108258;28;20138;-38
2021/06/01 12:32:18;;;;;;;2.75;1.30;;;23.20;55.30;;;;;;5096494;28;20034;-38
2021/06/01 12:43:36;;;;;;;3.50;1.67;;;23.30;53.70;;;;;;5107836;28;20039;-39
2021/06/01 13:39:51;;;;;;;2.00;1.45;;;24.10;53.00;;;;;;5108573;28;20466;-39
2021/06/01 13:48:07;;;;;;;1.75;1.60;;;24.30;53.30;;;;;;5110499;28;20058;-38
2021/06/01 13:55:52;;;;;;;3.30;1.50;;;24.40;53.80;;;;;;5111020;28;20038;-39
2021/06/01 13:58:43;;;;;;;1.30;1.20;;;24.40;53.80;;;;;;5110574;28;20023;-39
2021/06/01 14:39:15;;;;;;;2.70;1.60;;;24.70;53.10;;;;;;5110009;28;20032;-40
2021/06/01 14:56:42;;;;;;;2.65;1.30;;;25.00;50.70;;;;;;5109468;28;20039;-39
2021/06/01 15:04:32;;;;;;;2.63;2.00;;;25.20;50.30;;;;;;5109208;28;20123;-39
2021/06/01 15:24:18;;;;;;;1.70;1.60;;;25.30;49.70;;;;;;5108748;28;20393;-40
2021/06/01 15:29:11;;;;;;;1.60;1.40;;;25.40;49.00;;;;;;5109304;28;20108;-39
2021/06/01 15:32:08;;;;;;;;;;;25.40;48.50;;;;;;5109010;28;20145;-39
2021/06/01 15:54:01;;;;;;;1.63;1.50;;;25.60;49.20;;;;;;5109088;28;20055;-39
2021/06/01 16:21:27;;;;;;;3.05;1.48;;;25.90;48.20;;;;;;5107755;28;20050;-39
2021/06/01 16:32:14;;;;;;;1.45;1.35;;;25.90;48.80;;;;;;5107434;28;20038;-39
2021/06/01 17:05:03;;;;;;;1.92;1.35;;;25.90;46.00;;;;;;5107040;28;20508;-40
2021/06/01 17:13:16;;;;;;;2.25;1.15;;;25.90;45.80;;;;;;5100657;28;20428;-40
2021/06/01 17:15:42;;;;;;;1.10;1.10;;;26.00;45.90;;;;;;5113025;28;20479;-40
2021/06/01 17:18:35;;;;;;;1.55;1.00;;;26.00;46.30;;;;;;5113896;28;20130;-39
2021/06/01 17:21:37;;;;;;;1.33;1.23;;;26.00;46.20;;;;;;5113340;28;20027;-39
2021/06/01 17:30:40;;;;;;;3.83;1.60;;;26.20;46.30;;;;;;5097662;27;20104;-38
2021/06/01 17:34:48;;;;;;;1.92;1.10;;;26.40;45.20;;;;;;5114335;27;20043;-39
2021/06/01 17:37:14;;;;;;;1.42;1.30;;;26.50;45.30;;;;;;5113402;28;20049;-40
2021/06/01 17:39:40;;;;;;;1.90;1.05;;;26.70;45.00;;;;;;5114046;28;20085;-41
2021/06/01 17:42:06;;;;;;;1.70;1.30;;;26.80;44.90;;;;;;5113679;28;20027;-43
2021/06/01 17:44:32;;;;;;;1.50;1.27;;;27.00;44.60;;;;;;5113514;27;20834;-37
2021/06/01 17:47:01;;;;;;;1.60;1.20;;;27.10;44.00;;;;;;5113520;27;20016;-40
2021/06/01 17:49:29;;;;;;;2.40;1.30;;;27.20;43.80;;;;;;5114368;27;20100;-40
2021/06/01 17:51:58;;;;;;;2.05;1.35;;;27.30;44.00;;;;;;5112999;27;20039;-40
2021/06/01 17:54:33;;;;;;;1.45;1.35;;;27.40;44.10;;;;;;5114358;27;20402;-40
2021/06/01 17:56:59;;;;;;;1.63;1.20;;;27.50;44.00;;;;;;5113198;27;20028;-39
2021/06/01 17:59:28;;;;;;;2.30;1.20;;;27.50;44.10;;;;;;5112745;27;20483;-40
2021/06/01 18:01:54;;;;;;;1.20;1.10;;;27.50;44.10;;;;;;5112719;27;20028;-40
2021/06/01 18:04:26;;;;;;;1.85;1.17;;;27.20;44.30;;;;;;5113100;28;20027;-38
2021/06/01 18:07:00;;;;;;;1.25;1.17;;;27.00;44.60;;;;;;5113291;28;20019;-38
2021/06/01 18:09:56;;;;;;;1.83;1.20;;;26.70;44.90;;;;;;5113921;27;20112;-39
2021/06/01 18:35:16;;;;;;;2.63;1.58;;;25.20;45.60;;;;;;5110054;28;20085;-39
2021/06/01 19:24:13;;;;;;;3.22;1.73;;;23.80;50.00;;;;;;5108211;28;20070;-40
2021/06/01 19:50:04;;;;;;;2.17;1.60;;;23.10;51.60;;;;;;5108174;28;20030;-40
2021/06/01 19:52:34;;;;;;;1.83;1.38;;;23.00;51.70;;;;;;5108882;28;20023;-40
2021/06/01 19:55:03;;;;;;;1.30;1.20;;;23.00;51.90;;;;;;5108842;28;20119;-42
2021/06/01 19:57:28;;;;;;;3.13;1.73;;;22.90;52.00;;;;;;5108546;28;20023;-39
2021/06/01 19:59:56;;;;;;;2.75;1.60;;;22.80;52.70;;;;;;5108117;28;20565;-41
2021/06/01 20:02:32;;;;;;;1.75;1.45;;;22.80;52.20;;;;;;5108102;28;20027;-39